sensor_id;sensor_type;location;lat;lon;timestamp;temperature;humidity
1728;DHT22;861;48.808;9.006;2022-09-24T00:01:35;13.40;99.90
1728;DHT22;861;48.808;9.006;2022-09-24T00:04:09;13.30;99.90
1728;DHT22;861;48.808;9.006;2022-09-24T00:06:45;13.40;99.90
1728;DHT22;861;48.808;9.006;2022-09-24T00:09:18;13.30;99.90
1728;DHT22;861;48.808;9.006;2022-09-24T00:11:48;13.40;99.90
1728;DHT22;861;48.808;9.006;2022-09-24T00:14:18;13.30;99.90
1728;DHT22;861;48.808;9.006;2022-09-24T00:16:45;13.40;99.90
1728;DHT22;861;48.808;9.006;2022-09-24T00:19:13;13.40;99.90
1728;DHT22;861;48.808;9.006;2022-09-24T00:21:41;13.40;99.90
1728;DHT22;861;48.808;9.006;2022-09-24T00:24:14;13.50;99.90
1728;DHT22;861;48.808;9.006;2022-09-24T00:27:03;13.40;99.90
1728;DHT22;861;48.808;9.006;2022-09-24T00:29:31;13.50;99.90
1728;DHT22;861;48.808;9.006;2022-09-24T00:32:02;13.40;99.90
1728;DHT22;861;48.808;9.006;2022-09-24T00:34:29;13.40;99.90
1728;DHT22;861;48.808;9.006;2022-09-24T00:36:56;13.30;99.90
1728;DHT22;861;48.808;9.006;2022-09-24T00:39:22;13.50;99.90
1728;DHT22;861;48.808;9.006;2022-09-24T00:41:48;13.40;99.90
1728;DHT22;861;48.808;9.006;2022-09-24T00:44:48;13.60;99.90
1728;DHT22;861;48.808;9.006;2022-09-24T00:47:30;13.50;99.90
1728;DHT22;861;48.808;9.006;2022-09-24T00:50:18;13.50;99.90
1728;DHT22;861;48.808;9.006;2022-09-24T00:53:07;13.00;99.90
1728;DHT22;861;48.808;9.006;2022-09-24T00:55:43;13.50;99.90
1728;DHT22;861;48.808;9.006;2022-09-24T00:58:15;13.90;99.90
1728;DHT22;861;48.808;9.006;2022-09-24T01:00:43;13.50;99.90
1728;DHT22;861;48.808;9.006;2022-09-24T01:03:22;13.40;99.90
1728;DHT22;861;48.808;9.006;2022-09-24T01:05:52;13.50;99.90
1728;DHT22;861;48.808;9.006;2022-09-24T01:08:21;13.50;99.90
1728;DHT22;861;48.808;9.006;2022-09-24T01:11:21;13.40;99.90
1728;DHT22;861;48.808;9.006;2022-09-24T01:14:56;13.40;99.90
1728;DHT22;861;48.808;9.006;2022-09-24T01:18:00;13.50;99.90
1728;DHT22;861;48.808;9.006;2022-09-24T01:27:43;13.30;99.90
1728;DHT22;861;48.808;9.006;2022-09-24T01:30:31;13.30;99.90
1728;DHT22;861;48.808;9.006;2022-09-24T01:33:12;13.80;99.90
1728;DHT22;861;48.808;9.006;2022-09-24T01:35:53;13.30;99.90
1728;DHT22;861;48.808;9.006;2022-09-24T01:38:36;13.50;99.90
1728;DHT22;861;48.808;9.006;2022-09-24T01:41:11;13.30;99.90
1728;DHT22;861;48.808;9.006;2022-09-24T01:43:43;13.20;99.90
1728;DHT22;861;48.808;9.006;2022-09-24T01:46:15;13.20;99.90
1728;DHT22;861;48.808;9.006;2022-09-24T01:48:44;12.70;99.90
1728;DHT22;861;48.808;9.006;2022-09-24T01:51:29;13.20;99.90
1728;DHT22;861;48.808;9.006;2022-09-24T01:57:19;13.20;99.90
1728;DHT22;861;48.808;9.006;2022-09-24T02:00:09;13.00;99.90
1728;DHT22;861;48.808;9.006;2022-09-24T02:02:57;13.00;99.90
1728;DHT22;861;48.808;9.006;2022-09-24T02:06:03;13.20;99.90
1728;DHT22;861;48.808;9.006;2022-09-24T02:08:44;12.90;99.90
1728;DHT22;861;48.808;9.006;2022-09-24T02:11:22;13.00;99.90
1728;DHT22;861;48.808;9.006;2022-09-24T02:16:48;13.20;99.90
1728;DHT22;861;48.808;9.006;2022-09-24T02:19:25;13.20;99.90
1728;DHT22;861;48.808;9.006;2022-09-24T02:21:57;13.10;99.90
1728;DHT22;861;48.808;9.006;2022-09-24T02:24:44;13.10;99.90
1728;DHT22;861;48.808;9.006;2022-09-24T02:27:17;13.00;99.90
1728;DHT22;861;48.808;9.006;2022-09-24T02:29:45;12.70;99.90
1728;DHT22;861;48.808;9.006;2022-09-24T02:32:18;13.10;99.90
1728;DHT22;861;48.808;9.006;2022-09-24T02:34:55;13.10;99.90
1728;DHT22;861;48.808;9.006;2022-09-24T02:37:32;12.60;99.90
1728;DHT22;861;48.808;9.006;2022-09-24T02:40:08;14.00;99.90
1728;DHT22;861;48.808;9.006;2022-09-24T02:42:57;13.10;99.90
1728;DHT22;861;48.808;9.006;2022-09-24T02:45:43;13.00;99.90
1728;DHT22;861;48.808;9.006;2022-09-24T02:48:29;12.90;99.90
1728;DHT22;861;48.808;9.006;2022-09-24T02:51:16;12.70;99.90
1728;DHT22;861;48.808;9.006;2022-09-24T02:54:03;12.60;99.90
1728;DHT22;861;48.808;9.006;2022-09-24T02:56:50;12.40;99.90
1728;DHT22;861;48.808;9.006;2022-09-24T03:02:23;12.50;99.90
1728;DHT22;861;48.808;9.006;2022-09-24T03:05:10;12.60;99.90
1728;DHT22;861;48.808;9.006;2022-09-24T03:07:57;12.80;99.90
1728;DHT22;861;48.808;9.006;2022-09-24T03:10:43;12.80;99.90
1728;DHT22;861;48.808;9.006;2022-09-24T03:13:29;13.20;99.90
1728;DHT22;861;48.808;9.006;2022-09-24T03:16:17;13.00;99.90
1728;DHT22;861;48.808;9.006;2022-09-24T03:19:05;13.00;99.90
1728;DHT22;861;48.808;9.006;2022-09-24T03:21:52;13.00;99.90
1728;DHT22;861;48.808;9.006;2022-09-24T03:24:38;12.80;99.90
1728;DHT22;861;48.808;9.006;2022-09-24T03:27:24;12.80;99.90
1728;DHT22;861;48.808;9.006;2022-09-24T03:30:11;12.80;99.90
1728;DHT22;861;48.808;9.006;2022-09-24T03:33:16;12.90;99.90
1728;DHT22;861;48.808;9.006;2022-09-24T03:36:13;12.90;99.90
1728;DHT22;861;48.808;9.006;2022-09-24T03:39:07;13.00;99.90
1728;DHT22;861;48.808;9.006;2022-09-24T03:41:53;13.00;99.90
1728;DHT22;861;48.808;9.006;2022-09-24T03:44:39;13.00;99.90
1728;DHT22;861;48.808;9.006;2022-09-24T03:47:25;13.00;99.90
1728;DHT22;861;48.808;9.006;2022-09-24T03:50:11;12.80;99.90
1728;DHT22;861;48.808;9.006;2022-09-24T03:52:57;13.00;99.90
1728;DHT22;861;48.808;9.006;2022-09-24T03:55:52;12.70;99.90
1728;DHT22;861;48.808;9.006;2022-09-24T03:58:41;12.80;99.90
1728;DHT22;861;48.808;9.006;2022-09-24T04:01:32;13.30;99.90
1728;DHT22;861;48.808;9.006;2022-09-24T04:04:21;12.80;99.90
1728;DHT22;861;48.808;9.006;2022-09-24T04:07:07;12.80;99.90
1728;DHT22;861;48.808;9.006;2022-09-24T04:09:53;12.80;99.90
1728;DHT22;861;48.808;9.006;2022-09-24T04:12:39;12.90;99.90
1728;DHT22;861;48.808;9.006;2022-09-24T04:15:28;12.90;99.90
1728;DHT22;861;48.808;9.006;2022-09-24T04:18:15;12.80;99.90
1728;DHT22;861;48.808;9.006;2022-09-24T04:21:02;12.90;99.90
1728;DHT22;861;48.808;9.006;2022-09-24T04:23:48;12.70;99.90
1728;DHT22;861;48.808;9.006;2022-09-24T04:26:34;12.90;99.90
1728;DHT22;861;48.808;9.006;2022-09-24T04:29:20;12.80;99.90
1728;DHT22;861;48.808;9.006;2022-09-24T04:32:06;12.80;99.90
1728;DHT22;861;48.808;9.006;2022-09-24T04:34:52;12.80;99.90
1728;DHT22;861;48.808;9.006;2022-09-24T04:37:39;12.90;99.90
1728;DHT22;861;48.808;9.006;2022-09-24T04:40:26;12.90;99.90
1728;DHT22;861;48.808;9.006;2022-09-24T04:43:13;12.80;99.90
1728;DHT22;861;48.808;9.006;2022-09-24T04:48:36;13.00;99.90
1728;DHT22;861;48.808;9.006;2022-09-24T04:51:22;13.10;99.90
1728;DHT22;861;48.808;9.006;2022-09-24T04:54:09;13.20;99.90
1728;DHT22;861;48.808;9.006;2022-09-24T04:56:55;13.10;99.90
1728;DHT22;861;48.808;9.006;2022-09-24T04:59:42;13.00;99.90
1728;DHT22;861;48.808;9.006;2022-09-24T05:02:29;13.00;99.90
1728;DHT22;861;48.808;9.006;2022-09-24T05:05:15;12.90;99.90
1728;DHT22;861;48.808;9.006;2022-09-24T05:08:02;12.80;99.90
1728;DHT22;861;48.808;9.006;2022-09-24T05:10:49;12.80;99.90
1728;DHT22;861;48.808;9.006;2022-09-24T05:13:36;12.70;99.90
1728;DHT22;861;48.808;9.006;2022-09-24T05:16:22;12.70;99.90
1728;DHT22;861;48.808;9.006;2022-09-24T05:19:08;12.70;99.90
1728;DHT22;861;48.808;9.006;2022-09-24T05:21:54;13.60;99.90
1728;DHT22;861;48.808;9.006;2022-09-24T05:24:40;12.60;99.90
1728;DHT22;861;48.808;9.006;2022-09-24T05:27:27;12.60;99.90
1728;DHT22;861;48.808;9.006;2022-09-24T05:30:18;12.60;99.90
1728;DHT22;861;48.808;9.006;2022-09-24T05:33:13;12.60;99.90
1728;DHT22;861;48.808;9.006;2022-09-24T05:36:00;12.80;99.90
1728;DHT22;861;48.808;9.006;2022-09-24T05:38:46;12.90;99.90
1728;DHT22;861;48.808;9.006;2022-09-24T05:41:32;12.90;99.90
1728;DHT22;861;48.808;9.006;2022-09-24T05:44:18;12.80;99.90
1728;DHT22;861;48.808;9.006;2022-09-24T05:47:05;13.70;99.90
1728;DHT22;861;48.808;9.006;2022-09-24T05:49:51;12.90;99.90
1728;DHT22;861;48.808;9.006;2022-09-24T05:52:39;13.00;99.90
1728;DHT22;861;48.808;9.006;2022-09-24T05:55:26;12.90;99.90
1728;DHT22;861;48.808;9.006;2022-09-24T05:58:13;12.90;99.90
1728;DHT22;861;48.808;9.006;2022-09-24T06:00:59;13.40;99.90
1728;DHT22;861;48.808;9.006;2022-09-24T06:03:46;12.90;99.90
1728;DHT22;861;48.808;9.006;2022-09-24T06:06:32;12.90;99.90
1728;DHT22;861;48.808;9.006;2022-09-24T06:09:18;12.90;99.90
1728;DHT22;861;48.808;9.006;2022-09-24T06:12:07;13.10;99.90
1728;DHT22;861;48.808;9.006;2022-09-24T06:14:55;13.20;99.90
1728;DHT22;861;48.808;9.006;2022-09-24T06:17:41;13.20;99.90
1728;DHT22;861;48.808;9.006;2022-09-24T06:20:27;13.40;99.90
1728;DHT22;861;48.808;9.006;2022-09-24T06:23:13;13.40;99.90
1728;DHT22;861;48.808;9.006;2022-09-24T06:25:59;13.40;99.90
1728;DHT22;861;48.808;9.006;2022-09-24T06:28:46;13.50;99.90
1728;DHT22;861;48.808;9.006;2022-09-24T06:31:32;13.60;99.90
1728;DHT22;861;48.808;9.006;2022-09-24T06:34:19;13.80;99.90
1728;DHT22;861;48.808;9.006;2022-09-24T06:37:05;13.40;99.90
1728;DHT22;861;48.808;9.006;2022-09-24T06:39:51;13.70;99.90
1728;DHT22;861;48.808;9.006;2022-09-24T06:42:37;13.70;99.90
1728;DHT22;861;48.808;9.006;2022-09-24T06:45:24;13.80;99.90
1728;DHT22;861;48.808;9.006;2022-09-24T06:48:13;13.80;99.90
1728;DHT22;861;48.808;9.006;2022-09-24T06:50:59;14.00;99.90
1728;DHT22;861;48.808;9.006;2022-09-24T06:53:45;13.90;99.90
1728;DHT22;861;48.808;9.006;2022-09-24T06:56:35;13.90;99.90
1728;DHT22;861;48.808;9.006;2022-09-24T06:59:21;12.70;99.90
1728;DHT22;861;48.808;9.006;2022-09-24T07:02:08;13.00;99.90
1728;DHT22;861;48.808;9.006;2022-09-24T07:04:54;14.00;99.90
1728;DHT22;861;48.808;9.006;2022-09-24T07:07:42;14.10;99.90
1728;DHT22;861;48.808;9.006;2022-09-24T07:10:28;14.20;99.90
1728;DHT22;861;48.808;9.006;2022-09-24T07:13:15;14.20;99.90
1728;DHT22;861;48.808;9.006;2022-09-24T07:16:01;14.10;99.90
1728;DHT22;861;48.808;9.006;2022-09-24T07:18:47;14.10;99.90
1728;DHT22;861;48.808;9.006;2022-09-24T07:21:33;14.10;99.90
1728;DHT22;861;48.808;9.006;2022-09-24T07:24:20;14.20;99.90
1728;DHT22;861;48.808;9.006;2022-09-24T07:27:06;14.40;99.90
1728;DHT22;861;48.808;9.006;2022-09-24T07:29:53;14.30;99.90
1728;DHT22;861;48.808;9.006;2022-09-24T07:32:39;14.30;99.90
1728;DHT22;861;48.808;9.006;2022-09-24T07:35:28;14.40;99.90
1728;DHT22;861;48.808;9.006;2022-09-24T07:38:15;14.50;99.90
1728;DHT22;861;48.808;9.006;2022-09-24T07:41:02;14.50;99.90
1728;DHT22;861;48.808;9.006;2022-09-24T07:43:50;14.70;99.90
1728;DHT22;861;48.808;9.006;2022-09-24T07:46:36;14.70;99.90
1728;DHT22;861;48.808;9.006;2022-09-24T07:49:22;14.80;99.90
1728;DHT22;861;48.808;9.006;2022-09-24T07:52:10;14.80;99.90
1728;DHT22;861;48.808;9.006;2022-09-24T07:54:56;14.90;99.90
1728;DHT22;861;48.808;9.006;2022-09-24T07:57:48;15.00;99.90
1728;DHT22;861;48.808;9.006;2022-09-24T08:00:37;15.00;99.90
1728;DHT22;861;48.808;9.006;2022-09-24T08:03:25;15.00;99.90
1728;DHT22;861;48.808;9.006;2022-09-24T08:06:12;15.10;99.90
1728;DHT22;861;48.808;9.006;2022-09-24T08:08:59;15.20;99.90
1728;DHT22;861;48.808;9.006;2022-09-24T08:14:34;15.40;99.90
1728;DHT22;861;48.808;9.006;2022-09-24T08:17:20;15.50;99.90
1728;DHT22;861;48.808;9.006;2022-09-24T08:20:07;15.70;99.90
1728;DHT22;861;48.808;9.006;2022-09-24T08:22:59;15.90;99.90
1728;DHT22;861;48.808;9.006;2022-09-24T08:25:47;15.90;99.90
1728;DHT22;861;48.808;9.006;2022-09-24T08:28:33;16.30;99.90
1728;DHT22;861;48.808;9.006;2022-09-24T08:31:20;16.40;99.90
1728;DHT22;861;48.808;9.006;2022-09-24T08:34:06;16.50;99.90
1728;DHT22;861;48.808;9.006;2022-09-24T08:36:52;16.70;99.90
1728;DHT22;861;48.808;9.006;2022-09-24T08:39:39;16.70;99.90
1728;DHT22;861;48.808;9.006;2022-09-24T08:50:18;16.60;99.90
1728;DHT22;861;48.808;9.006;2022-09-24T08:54:05;16.70;99.90
1728;DHT22;861;48.808;9.006;2022-09-24T08:57:04;16.90;99.90
1728;DHT22;861;48.808;9.006;2022-09-24T08:59:59;16.80;99.90
1728;DHT22;861;48.808;9.006;2022-09-24T09:03:16;16.80;99.90
1728;DHT22;861;48.808;9.006;2022-09-24T09:07:11;16.60;99.90
1728;DHT22;861;48.808;9.006;2022-09-24T09:10:19;16.80;99.90
1728;DHT22;861;48.808;9.006;2022-09-24T09:13:23;16.60;99.90
1728;DHT22;861;48.808;9.006;2022-09-24T09:16:57;16.50;99.90
1728;DHT22;861;48.808;9.006;2022-09-24T09:19:57;16.50;99.90
1728;DHT22;861;48.808;9.006;2022-09-24T09:22:51;16.90;99.90
1728;DHT22;861;48.808;9.006;2022-09-24T09:25:49;16.40;99.90
1728;DHT22;861;48.808;9.006;2022-09-24T09:28:41;16.30;99.90
1728;DHT22;861;48.808;9.006;2022-09-24T09:32:02;16.30;99.90
1728;DHT22;861;48.808;9.006;2022-09-24T09:35:23;16.20;99.90
1728;DHT22;861;48.808;9.006;2022-09-24T09:38:42;16.20;99.90
1728;DHT22;861;48.808;9.006;2022-09-24T09:49:06;16.30;99.90
1728;DHT22;861;48.808;9.006;2022-09-24T09:51:57;16.30;99.90
1728;DHT22;861;48.808;9.006;2022-09-24T09:54:57;16.40;99.90
1728;DHT22;861;48.808;9.006;2022-09-24T09:57:43;16.50;99.90
1728;DHT22;861;48.808;9.006;2022-09-24T10:00:34;16.80;99.90
1728;DHT22;861;48.808;9.006;2022-09-24T10:03:45;16.50;99.90
1728;DHT22;861;48.808;9.006;2022-09-24T10:06:34;16.70;99.90
1728;DHT22;861;48.808;9.006;2022-09-24T10:09:21;16.80;99.90
1728;DHT22;861;48.808;9.006;2022-09-24T10:12:20;16.90;99.90
1728;DHT22;861;48.808;9.006;2022-09-24T10:15:16;16.90;99.90
1728;DHT22;861;48.808;9.006;2022-09-24T10:18:09;17.00;99.90
1728;DHT22;861;48.808;9.006;2022-09-24T10:21:05;16.80;99.90
1728;DHT22;861;48.808;9.006;2022-09-24T10:24:13;16.90;99.90
1728;DHT22;861;48.808;9.006;2022-09-24T10:27:13;16.80;99.90
1728;DHT22;861;48.808;9.006;2022-09-24T10:30:23;17.00;99.90
1728;DHT22;861;48.808;9.006;2022-09-24T10:33:19;17.20;99.90
1728;DHT22;861;48.808;9.006;2022-09-24T10:36:20;17.20;99.90
1728;DHT22;861;48.808;9.006;2022-09-24T10:39:14;17.90;99.90
1728;DHT22;861;48.808;9.006;2022-09-24T10:42:00;17.50;99.90
1728;DHT22;861;48.808;9.006;2022-09-24T10:44:47;17.50;99.90
1728;DHT22;861;48.808;9.006;2022-09-24T10:48:09;17.40;99.90
1728;DHT22;861;48.808;9.006;2022-09-24T10:51:50;17.50;99.90
1728;DHT22;861;48.808;9.006;2022-09-24T10:59:44;18.20;99.90
1728;DHT22;861;48.808;9.006;2022-09-24T11:17:42;18.60;99.90
1728;DHT22;861;48.808;9.006;2022-09-24T11:21:14;18.60;99.90
1728;DHT22;861;48.808;9.006;2022-09-24T11:24:46;18.40;99.90
1728;DHT22;861;48.808;9.006;2022-09-24T11:54:05;18.20;99.90
1728;DHT22;861;48.808;9.006;2022-09-24T11:57:24;18.30;99.90
1728;DHT22;861;48.808;9.006;2022-09-24T12:00:18;18.10;99.90
1728;DHT22;861;48.808;9.006;2022-09-24T12:03:21;18.00;99.90
1728;DHT22;861;48.808;9.006;2022-09-24T12:06:25;17.90;99.90
1728;DHT22;861;48.808;9.006;2022-09-24T12:09:46;17.90;99.90
1728;DHT22;861;48.808;9.006;2022-09-24T12:16:32;17.90;99.90
1728;DHT22;861;48.808;9.006;2022-09-24T12:19:58;17.90;99.90
1728;DHT22;861;48.808;9.006;2022-09-24T12:23:10;18.20;99.90
1728;DHT22;861;48.808;9.006;2022-09-24T12:26:05;17.80;99.90
1728;DHT22;861;48.808;9.006;2022-09-24T12:33:02;17.70;99.90
1728;DHT22;861;48.808;9.006;2022-09-24T12:39:16;17.60;99.90
1728;DHT22;861;48.808;9.006;2022-09-24T12:42:12;17.70;99.90
1728;DHT22;861;48.808;9.006;2022-09-24T12:45:04;18.30;99.90
1728;DHT22;861;48.808;9.006;2022-09-24T12:51:06;17.60;99.90
1728;DHT22;861;48.808;9.006;2022-09-24T12:54:23;17.70;99.90
1728;DHT22;861;48.808;9.006;2022-09-24T12:57:23;17.60;99.90
1728;DHT22;861;48.808;9.006;2022-09-24T13:00:43;17.80;99.90
1728;DHT22;861;48.808;9.006;2022-09-24T13:03:39;17.80;99.90
1728;DHT22;861;48.808;9.006;2022-09-24T13:06:35;17.90;99.90
1728;DHT22;861;48.808;9.006;2022-09-24T13:12:32;17.90;99.90
1728;DHT22;861;48.808;9.006;2022-09-24T13:15:40;17.90;99.90
1728;DHT22;861;48.808;9.006;2022-09-24T13:18:30;17.90;99.90
1728;DHT22;861;48.808;9.006;2022-09-24T13:21:28;17.90;99.90
1728;DHT22;861;48.808;9.006;2022-09-24T13:24:28;17.90;99.90
1728;DHT22;861;48.808;9.006;2022-09-24T13:30:40;17.90;99.90
1728;DHT22;861;48.808;9.006;2022-09-24T13:33:41;17.90;99.90
1728;DHT22;861;48.808;9.006;2022-09-24T13:39:52;18.00;99.90
1728;DHT22;861;48.808;9.006;2022-09-24T13:43:15;18.10;99.90
1728;DHT22;861;48.808;9.006;2022-09-24T13:46:21;18.20;99.90
1728;DHT22;861;48.808;9.006;2022-09-24T13:49:17;18.00;99.90
1728;DHT22;861;48.808;9.006;2022-09-24T13:52:31;18.30;99.90
1728;DHT22;861;48.808;9.006;2022-09-24T13:55:48;18.20;99.90
1728;DHT22;861;48.808;9.006;2022-09-24T13:58:39;18.00;99.90
1728;DHT22;861;48.808;9.006;2022-09-24T14:01:27;18.40;99.90
1728;DHT22;861;48.808;9.006;2022-09-24T14:04:21;18.30;99.90
1728;DHT22;861;48.808;9.006;2022-09-24T14:07:09;18.20;99.90
1728;DHT22;861;48.808;9.006;2022-09-24T14:10:12;18.30;99.90
1728;DHT22;861;48.808;9.006;2022-09-24T14:13:20;18.30;99.90
1728;DHT22;861;48.808;9.006;2022-09-24T14:16:17;18.20;99.90
1728;DHT22;861;48.808;9.006;2022-09-24T14:19:15;18.10;99.90
1728;DHT22;861;48.808;9.006;2022-09-24T14:22:09;18.10;99.90
1728;DHT22;861;48.808;9.006;2022-09-24T14:25:17;18.10;99.90
1728;DHT22;861;48.808;9.006;2022-09-24T14:28:15;18.30;99.90
1728;DHT22;861;48.808;9.006;2022-09-24T14:31:07;18.00;99.90
1728;DHT22;861;48.808;9.006;2022-09-24T14:33:54;18.10;99.90
1728;DHT22;861;48.808;9.006;2022-09-24T14:36:41;18.30;99.90
1728;DHT22;861;48.808;9.006;2022-09-24T14:39:28;18.40;99.90
1728;DHT22;861;48.808;9.006;2022-09-24T14:42:30;18.40;99.90
1728;DHT22;861;48.808;9.006;2022-09-24T14:45:35;19.00;99.90
1728;DHT22;861;48.808;9.006;2022-09-24T14:48:34;18.40;99.90
1728;DHT22;861;48.808;9.006;2022-09-24T14:51:29;18.50;99.90
1728;DHT22;861;48.808;9.006;2022-09-24T14:54:32;18.40;99.90
1728;DHT22;861;48.808;9.006;2022-09-24T14:57:24;18.50;99.90
1728;DHT22;861;48.808;9.006;2022-09-24T15:00:28;18.50;99.90
1728;DHT22;861;48.808;9.006;2022-09-24T15:03:37;18.50;99.90
1728;DHT22;861;48.808;9.006;2022-09-24T15:06:35;18.50;99.90
1728;DHT22;861;48.808;9.006;2022-09-24T15:09:30;18.50;99.90
1728;DHT22;861;48.808;9.006;2022-09-24T15:12:24;18.50;99.90
1728;DHT22;861;48.808;9.006;2022-09-24T15:18:01;18.40;99.90
1728;DHT22;861;48.808;9.006;2022-09-24T15:20:48;18.50;99.90
1728;DHT22;861;48.808;9.006;2022-09-24T15:23:34;18.60;99.90
1728;DHT22;861;48.808;9.006;2022-09-24T15:26:23;18.50;99.90
1728;DHT22;861;48.808;9.006;2022-09-24T15:29:21;18.40;99.90
1728;DHT22;861;48.808;9.006;2022-09-24T15:32:17;18.10;99.90
1728;DHT22;861;48.808;9.006;2022-09-24T15:35:05;17.70;99.90
1728;DHT22;861;48.808;9.006;2022-09-24T15:37:53;18.10;99.90
1728;DHT22;861;48.808;9.006;2022-09-24T15:40:40;18.10;99.90
1728;DHT22;861;48.808;9.006;2022-09-24T15:43:28;18.10;99.90
1728;DHT22;861;48.808;9.006;2022-09-24T15:46:14;18.10;99.90
1728;DHT22;861;48.808;9.006;2022-09-24T15:49:00;18.00;99.90
1728;DHT22;861;48.808;9.006;2022-09-24T15:51:52;18.00;99.90
1728;DHT22;861;48.808;9.006;2022-09-24T15:54:46;18.20;99.90
1728;DHT22;861;48.808;9.006;2022-09-24T15:57:32;18.20;99.90
1728;DHT22;861;48.808;9.006;2022-09-24T16:00:23;17.80;99.90
1728;DHT22;861;48.808;9.006;2022-09-24T16:03:19;17.60;99.90
1728;DHT22;861;48.808;9.006;2022-09-24T16:06:11;17.60;99.90
1728;DHT22;861;48.808;9.006;2022-09-24T16:08:58;17.80;99.90
1728;DHT22;861;48.808;9.006;2022-09-24T16:11:44;17.70;99.90
1728;DHT22;861;48.808;9.006;2022-09-24T16:14:31;17.80;99.90
1728;DHT22;861;48.808;9.006;2022-09-24T16:17:17;17.80;99.90
1728;DHT22;861;48.808;9.006;2022-09-24T16:20:04;17.70;99.90
1728;DHT22;861;48.808;9.006;2022-09-24T16:22:51;17.70;99.90
1728;DHT22;861;48.808;9.006;2022-09-24T16:25:37;17.70;99.90
1728;DHT22;861;48.808;9.006;2022-09-24T16:28:25;17.70;99.90
1728;DHT22;861;48.808;9.006;2022-09-24T16:31:13;17.70;99.90
1728;DHT22;861;48.808;9.006;2022-09-24T16:33:59;17.60;99.90
1728;DHT22;861;48.808;9.006;2022-09-24T16:36:46;17.60;99.90
1728;DHT22;861;48.808;9.006;2022-09-24T16:39:32;17.50;99.90
1728;DHT22;861;48.808;9.006;2022-09-24T16:42:18;17.50;99.90
1728;DHT22;861;48.808;9.006;2022-09-24T16:45:05;17.50;99.90
1728;DHT22;861;48.808;9.006;2022-09-24T16:47:52;17.50;99.90
1728;DHT22;861;48.808;9.006;2022-09-24T16:50:38;17.50;99.90
1728;DHT22;861;48.808;9.006;2022-09-24T16:53:24;17.30;99.90
1728;DHT22;861;48.808;9.006;2022-09-24T16:56:13;17.30;99.90
1728;DHT22;861;48.808;9.006;2022-09-24T16:59:02;17.20;99.90
1728;DHT22;861;48.808;9.006;2022-09-24T17:01:48;17.20;99.90
1728;DHT22;861;48.808;9.006;2022-09-24T17:04:34;17.20;99.90
1728;DHT22;861;48.808;9.006;2022-09-24T17:07:20;17.20;99.90
1728;DHT22;861;48.808;9.006;2022-09-24T17:10:09;17.30;99.90
1728;DHT22;861;48.808;9.006;2022-09-24T17:12:58;17.30;99.90
1728;DHT22;861;48.808;9.006;2022-09-24T17:15:46;17.40;99.90
1728;DHT22;861;48.808;9.006;2022-09-24T17:18:32;17.20;99.90
1728;DHT22;861;48.808;9.006;2022-09-24T17:21:20;17.20;99.90
1728;DHT22;861;48.808;9.006;2022-09-24T17:24:08;17.30;99.90
1728;DHT22;861;48.808;9.006;2022-09-24T17:26:54;16.90;99.90
1728;DHT22;861;48.808;9.006;2022-09-24T17:29:41;17.10;99.90
1728;DHT22;861;48.808;9.006;2022-09-24T17:32:27;17.00;99.90
1728;DHT22;861;48.808;9.006;2022-09-24T17:35:14;16.90;99.90
1728;DHT22;861;48.808;9.006;2022-09-24T17:40:59;16.90;99.90
1728;DHT22;861;48.808;9.006;2022-09-24T17:43:55;16.90;99.90
1728;DHT22;861;48.808;9.006;2022-09-24T17:46:45;17.90;99.90
1728;DHT22;861;48.808;9.006;2022-09-24T17:49:32;16.80;99.90
1728;DHT22;861;48.808;9.006;2022-09-24T17:52:19;16.80;99.90
1728;DHT22;861;48.808;9.006;2022-09-24T17:55:05;17.20;99.90
1728;DHT22;861;48.808;9.006;2022-09-24T17:57:52;16.90;99.90
1728;DHT22;861;48.808;9.006;2022-09-24T18:00:38;17.50;99.90
1728;DHT22;861;48.808;9.006;2022-09-24T18:03:24;16.90;99.90
1728;DHT22;861;48.808;9.006;2022-09-24T18:06:13;16.90;99.90
1728;DHT22;861;48.808;9.006;2022-09-24T18:09:03;16.80;99.90
1728;DHT22;861;48.808;9.006;2022-09-24T18:11:51;16.80;99.90
1728;DHT22;861;48.808;9.006;2022-09-24T18:14:37;16.90;99.90
1728;DHT22;861;48.808;9.006;2022-09-24T18:17:24;16.90;99.90
1728;DHT22;861;48.808;9.006;2022-09-24T18:20:10;16.80;99.90
1728;DHT22;861;48.808;9.006;2022-09-24T18:22:56;16.80;99.90
1728;DHT22;861;48.808;9.006;2022-09-24T18:25:42;16.70;99.90
1728;DHT22;861;48.808;9.006;2022-09-24T18:28:28;16.70;99.90
1728;DHT22;861;48.808;9.006;2022-09-24T18:31:16;16.70;99.90
1728;DHT22;861;48.808;9.006;2022-09-24T18:34:07;16.60;99.90
1728;DHT22;861;48.808;9.006;2022-09-24T18:36:55;16.70;99.90
1728;DHT22;861;48.808;9.006;2022-09-24T18:39:41;16.70;99.90
1728;DHT22;861;48.808;9.006;2022-09-24T18:42:28;16.70;99.90
1728;DHT22;861;48.808;9.006;2022-09-24T18:45:15;16.70;99.90
1728;DHT22;861;48.808;9.006;2022-09-24T18:48:02;16.50;99.90
1728;DHT22;861;48.808;9.006;2022-09-24T18:50:48;16.30;99.90
1728;DHT22;861;48.808;9.006;2022-09-24T18:53:35;16.50;99.90
1728;DHT22;861;48.808;9.006;2022-09-24T18:56:22;16.50;99.90
1728;DHT22;861;48.808;9.006;2022-09-24T18:59:16;16.60;99.90
1728;DHT22;861;48.808;9.006;2022-09-24T19:02:04;16.50;99.90
1728;DHT22;861;48.808;9.006;2022-09-24T19:04:51;17.00;99.90
1728;DHT22;861;48.808;9.006;2022-09-24T19:07:37;16.50;99.90
1728;DHT22;861;48.808;9.006;2022-09-24T19:10:23;16.40;99.90
1728;DHT22;861;48.808;9.006;2022-09-24T19:13:10;16.50;99.90
1728;DHT22;861;48.808;9.006;2022-09-24T19:15:56;16.20;99.90
1728;DHT22;861;48.808;9.006;2022-09-24T19:18:48;16.00;99.90
1728;DHT22;861;48.808;9.006;2022-09-24T19:21:37;16.10;99.90
1728;DHT22;861;48.808;9.006;2022-09-24T19:24:25;16.00;99.90
1728;DHT22;861;48.808;9.006;2022-09-24T19:27:11;15.90;99.90
1728;DHT22;861;48.808;9.006;2022-09-24T19:29:57;16.00;99.90
1728;DHT22;861;48.808;9.006;2022-09-24T19:32:43;15.90;99.90
1728;DHT22;861;48.808;9.006;2022-09-24T19:35:30;16.20;99.90
1728;DHT22;861;48.808;9.006;2022-09-24T19:38:16;16.20;99.90
1728;DHT22;861;48.808;9.006;2022-09-24T19:41:25;16.20;99.90
1728;DHT22;861;48.808;9.006;2022-09-24T19:44:12;16.10;99.90
1728;DHT22;861;48.808;9.006;2022-09-24T19:46:59;16.10;99.90
1728;DHT22;861;48.808;9.006;2022-09-24T19:49:46;16.30;99.90
1728;DHT22;861;48.808;9.006;2022-09-24T19:52:32;16.20;99.90
1728;DHT22;861;48.808;9.006;2022-09-24T19:55:18;16.10;99.90
1728;DHT22;861;48.808;9.006;2022-09-24T19:58:04;16.10;99.90
1728;DHT22;861;48.808;9.006;2022-09-24T20:00:52;16.20;99.90
1728;DHT22;861;48.808;9.006;2022-09-24T20:03:39;16.20;99.90
1728;DHT22;861;48.808;9.006;2022-09-24T20:06:27;16.20;99.90
1728;DHT22;861;48.808;9.006;2022-09-24T20:09:13;16.30;99.90
1728;DHT22;861;48.808;9.006;2022-09-24T20:11:59;16.30;99.90
1728;DHT22;861;48.808;9.006;2022-09-24T20:14:46;16.20;99.90
1728;DHT22;861;48.808;9.006;2022-09-24T20:17:32;16.10;99.90
1728;DHT22;861;48.808;9.006;2022-09-24T20:20:18;16.00;99.90
1728;DHT22;861;48.808;9.006;2022-09-24T20:23:06;15.70;99.90
1728;DHT22;861;48.808;9.006;2022-09-24T20:25:54;15.80;99.90
1728;DHT22;861;48.808;9.006;2022-09-24T20:28:59;16.20;99.90
1728;DHT22;861;48.808;9.006;2022-09-24T20:31:50;15.90;99.90
1728;DHT22;861;48.808;9.006;2022-09-24T20:34:39;16.00;99.90
1728;DHT22;861;48.808;9.006;2022-09-24T20:37:26;15.10;99.90
1728;DHT22;861;48.808;9.006;2022-09-24T20:40:13;15.70;99.90